createdAt,value
2022-10-25T00:00:06.165Z,18.23
2022-10-25T00:01:07.298Z,18.24
2022-10-25T00:02:02.463Z,18.17
2022-10-25T00:02:56.209Z,18.15
2022-10-25T00:03:50.156Z,18.18
2022-10-25T00:04:44.153Z,18.09
2022-10-25T00:05:38.164Z,18.22
2022-10-25T00:06:25.196Z,18.16
2022-10-25T00:06:59.298Z,18.18
2022-10-25T00:07:46.470Z,18.15
2022-10-25T00:08:20.239Z,18.16
2022-10-25T00:09:07.183Z,18.15
2022-10-25T00:09:41.248Z,18.15
2022-10-25T00:10:28.145Z,18.22
2022-10-25T00:11:02.242Z,18.15
2022-10-25T00:11:50.205Z,18.16
2022-10-25T00:12:24.228Z,18.15
2022-10-25T00:13:12.150Z,18.27
2022-10-25T00:13:46.235Z,18.17
2022-10-25T00:14:34.143Z,18.11
2022-10-25T00:15:09.204Z,18.13
2022-10-25T00:15:56.137Z,18.17
2022-10-25T00:16:35.209Z,18.09
2022-10-25T00:17:16.180Z,18.09
2022-10-25T00:17:57.227Z,18.16
2022-10-25T00:18:37.157Z,18.16
2022-10-25T00:19:17.259Z,17.92
2022-10-25T00:19:58.164Z,18.09
2022-10-25T00:20:38.334Z,18.10
2022-10-25T00:21:18.137Z,18.07
2022-10-25T00:21:58.269Z,18.12
2022-10-25T00:22:38.178Z,18.08
2022-10-25T00:23:18.204Z,18.04
2022-10-25T00:23:59.128Z,18.02
2022-10-25T00:24:39.226Z,17.94
2022-10-25T00:25:20.145Z,17.97
2022-10-25T00:26:09.233Z,17.94
2022-10-25T00:26:49.145Z,17.94
2022-10-25T00:27:29.249Z,17.87
2022-10-25T00:28:09.181Z,17.83
2022-10-25T00:28:50.229Z,17.85
2022-10-25T00:29:30.164Z,17.89
2022-10-25T00:30:12.229Z,17.90
2022-10-25T00:30:52.135Z,17.83
2022-10-25T00:31:32.235Z,17.75
2022-10-25T00:32:12.146Z,17.76
2022-10-25T00:32:52.787Z,17.81
2022-10-25T00:33:37.185Z,17.78
2022-10-25T00:34:17.184Z,17.68
2022-10-25T00:34:58.133Z,17.63
2022-10-25T00:35:38.190Z,17.73
2022-10-25T00:36:28.133Z,17.65
2022-10-25T00:37:08.214Z,17.61
2022-10-25T00:37:48.139Z,17.66
2022-10-25T00:38:28.200Z,17.71
2022-10-25T00:39:09.182Z,17.75
2022-10-25T00:39:49.201Z,17.68
2022-10-25T00:40:29.133Z,17.76
2022-10-25T00:41:10.237Z,17.83
2022-10-25T00:41:50.145Z,17.80
2022-10-25T00:42:33.254Z,17.78
2022-10-25T00:43:16.143Z,17.72
2022-10-25T00:44:24.174Z,17.68
2022-10-25T00:45:38.130Z,17.69
2022-10-25T00:46:32.137Z,17.68
2022-10-25T00:47:35.129Z,17.80
2022-10-25T00:48:29.112Z,17.72
2022-10-25T00:49:33.150Z,17.72
2022-10-25T00:50:42.152Z,17.57
2022-10-25T00:51:42.142Z,17.58
2022-10-25T00:52:36.150Z,17.65
2022-10-25T00:53:40.124Z,17.60
2022-10-25T00:54:39.170Z,17.59
2022-10-25T00:55:35.133Z,17.59
2022-10-25T00:56:41.109Z,17.53
2022-10-25T00:57:56.144Z,17.57
2022-10-25T00:58:51.128Z,17.48
2022-10-25T00:59:46.207Z,17.55
2022-10-25T01:00:40.138Z,17.38
2022-10-25T01:01:34.210Z,17.48
2022-10-25T01:02:29.198Z,17.39
2022-10-25T01:03:23.213Z,17.43
2022-10-25T01:04:22.129Z,17.34
2022-10-25T01:05:10.137Z,17.33
2022-10-25T01:05:44.244Z,17.40
2022-10-25T01:06:41.102Z,17.36
2022-10-25T01:07:15.182Z,17.24
2022-10-25T01:08:02.101Z,17.41
2022-10-25T01:08:36.193Z,17.33
2022-10-25T01:09:28.094Z,17.22
2022-10-25T01:10:02.194Z,17.30
2022-10-25T01:10:44.169Z,17.23
2022-10-25T01:11:24.180Z,17.18
2022-10-25T01:12:05.104Z,17.10
2022-10-25T01:12:47.510Z,17.14
2022-10-25T01:13:30.126Z,17.14
2022-10-25T01:14:13.257Z,17.13
2022-10-25T01:14:57.085Z,17.14
2022-10-25T01:16:13.122Z,17.07
2022-10-25T01:17:44.113Z,17.08
2022-10-25T01:18:57.089Z,17.17
2022-10-25T01:20:29.096Z,17.15
2022-10-25T01:21:55.123Z,17.14
2022-10-25T01:23:12.115Z,17.12
2022-10-25T01:24:33.089Z,16.99
2022-10-25T01:26:03.104Z,17.09
2022-10-25T01:27:26.144Z,17.04
2022-10-25T01:29:08.089Z,17.10
2022-10-25T01:30:14.110Z,17.10
2022-10-25T01:31:34.089Z,16.97
2022-10-25T01:32:49.345Z,17.03
2022-10-25T01:33:51.080Z,17.04
2022-10-25T01:35:04.089Z,17.04
2022-10-25T01:37:01.084Z,17.01
2022-10-25T01:38:09.127Z,17.02
2022-10-25T01:39:19.076Z,17.04
2022-10-25T01:40:38.087Z,17.07
2022-10-25T01:41:55.066Z,17.07
2022-10-25T01:43:01.084Z,16.92
2022-10-25T01:43:48.112Z,16.92
2022-10-25T01:45:01.167Z,16.98
2022-10-25T01:45:53.073Z,16.96
2022-10-25T01:46:39.124Z,16.80
2022-10-25T01:47:40.069Z,16.86
2022-10-25T01:48:46.551Z,16.79
2022-10-25T01:49:52.127Z,16.96
2022-10-25T01:50:42.146Z,16.82
2022-10-25T01:51:25.073Z,16.85
2022-10-25T01:52:05.175Z,16.93
2022-10-25T01:52:45.142Z,16.91
2022-10-25T01:53:25.134Z,16.90
2022-10-25T01:54:05.057Z,16.95
2022-10-25T01:54:45.166Z,16.89
2022-10-25T01:55:27.086Z,16.99
2022-10-25T01:56:09.153Z,16.98
2022-10-25T01:57:21.065Z,16.94
2022-10-25T01:58:31.374Z,16.94
2022-10-25T01:59:43.071Z,16.80
2022-10-25T02:00:36.217Z,16.93
2022-10-25T02:02:03.075Z,16.95
2022-10-25T02:03:09.057Z,16.86
2022-10-25T02:04:53.068Z,16.79
2022-10-25T02:06:23.109Z,16.85
2022-10-25T02:07:37.041Z,16.85
2022-10-25T02:08:56.089Z,16.76
2022-10-25T02:10:30.081Z,16.65
2022-10-25T02:11:37.101Z,16.71
2022-10-25T02:12:40.050Z,16.66
2022-10-25T02:14:13.043Z,16.69
2022-10-25T02:15:46.066Z,16.69
2022-10-25T02:17:07.080Z,16.80
2022-10-25T02:18:15.045Z,16.73
2022-10-25T02:19:15.048Z,16.72
2022-10-25T02:20:13.037Z,16.78
2022-10-25T02:21:08.057Z,16.80
2022-10-25T02:22:03.069Z,16.74
2022-10-25T02:22:45.496Z,16.70
2022-10-25T02:23:27.121Z,16.67
2022-10-25T02:24:17.034Z,16.67
2022-10-25T02:24:58.128Z,16.58
2022-10-25T02:25:44.082Z,16.64
2022-10-25T02:26:25.129Z,16.70
2022-10-25T02:27:06.137Z,16.66
2022-10-25T02:27:54.054Z,16.66
2022-10-25T02:28:53.049Z,16.58
2022-10-25T02:29:48.051Z,16.67
2022-10-25T02:30:43.055Z,16.56
2022-10-25T02:31:38.040Z,16.67
2022-10-25T02:32:32.043Z,16.69
2022-10-25T02:33:19.124Z,16.64
2022-10-25T02:33:54.143Z,16.72
2022-10-25T02:34:41.027Z,16.60
2022-10-25T02:35:22.132Z,16.63
2022-10-25T02:36:29.040Z,16.66
2022-10-25T02:37:03.131Z,16.61
2022-10-25T02:37:50.243Z,16.54
2022-10-25T02:38:31.249Z,16.57
2022-10-25T02:39:27.742Z,16.50
2022-10-25T02:40:25.010Z,16.43
2022-10-25T02:41:20.025Z,16.54
2022-10-25T02:42:14.038Z,16.48
2022-10-25T02:43:08.030Z,16.46
2022-10-25T02:43:55.063Z,16.46
2022-10-25T02:44:29.120Z,16.42
2022-10-25T02:45:17.014Z,16.40
2022-10-25T02:45:51.093Z,16.32
2022-10-25T02:46:38.010Z,16.28
2022-10-25T02:47:12.078Z,16.36
2022-10-25T02:47:59.034Z,16.32
2022-10-25T02:48:33.130Z,16.26
2022-10-25T02:49:20.068Z,16.35
2022-10-25T02:49:54.115Z,16.34
2022-10-25T02:50:41.013Z,16.22
2022-10-25T02:51:17.100Z,16.28
2022-10-25T02:52:04.037Z,16.32
2022-10-25T02:52:38.080Z,16.32
2022-10-25T02:53:25.017Z,16.25
2022-10-25T02:53:59.079Z,16.25
2022-10-25T02:54:39.067Z,16.23
2022-10-25T02:55:19.101Z,16.30
2022-10-25T02:56:13.034Z,16.23
2022-10-25T02:56:53.105Z,16.11
2022-10-25T02:57:38.028Z,16.28
2022-10-25T02:58:18.092Z,16.28
2022-10-25T02:59:02.001Z,16.24
2022-10-25T02:59:49.054Z,16.11
2022-10-25T03:00:43.070Z,16.16
2022-10-25T03:01:38.063Z,16.23
2022-10-25T03:02:32.001Z,16.15
2022-10-25T03:03:26.016Z,16.16
2022-10-25T03:04:20.016Z,16.10
2022-10-25T03:05:07.103Z,16.02
2022-10-25T03:05:41.068Z,16.09
2022-10-25T03:06:27.997Z,16.07
2022-10-25T03:07:02.093Z,16.09
2022-10-25T03:07:49.026Z,16.08
2022-10-25T03:08:23.120Z,16.09
2022-10-25T03:09:11.013Z,16.02
2022-10-25T03:09:45.083Z,16.12
2022-10-25T03:10:32.013Z,15.95
2022-10-25T03:11:06.105Z,15.95
2022-10-25T03:11:53.005Z,16.02
2022-10-25T03:12:27.120Z,16.03
2022-10-25T03:13:13.976Z,16.07
2022-10-25T03:13:48.096Z,16.10
2022-10-25T03:14:35.006Z,16.05
2022-10-25T03:15:09.060Z,15.99
2022-10-25T03:15:56.015Z,15.95
2022-10-25T03:16:30.107Z,15.94
2022-10-25T03:17:16.985Z,16.02
2022-10-25T03:17:51.122Z,15.95
2022-10-25T03:18:39.010Z,16.05
2022-10-25T03:19:13.040Z,15.91
2022-10-25T03:19:59.984Z,15.99
2022-10-25T03:20:34.125Z,15.94
2022-10-25T03:21:21.029Z,15.96
2022-10-25T03:21:55.084Z,16.04
2022-10-25T03:22:41.997Z,16.00
2022-10-25T03:23:17.046Z,16.00
2022-10-25T03:24:03.981Z,16.00
2022-10-25T03:24:38.063Z,15.96
2022-10-25T03:25:24.985Z,16.07
2022-10-25T03:26:04.046Z,16.07
2022-10-25T03:26:45.029Z,16.01
2022-10-25T03:27:25.055Z,16.02
2022-10-25T03:28:08.030Z,16.08
2022-10-25T03:28:48.049Z,15.98
2022-10-25T03:29:27.992Z,16.07
2022-10-25T03:30:08.055Z,16.10
2022-10-25T03:30:48.983Z,16.13
2022-10-25T03:31:29.094Z,15.97
2022-10-25T03:32:12.054Z,16.08
2022-10-25T03:32:52.074Z,16.05
2022-10-25T03:33:32.993Z,16.06
2022-10-25T03:34:13.069Z,16.04
2022-10-25T03:34:52.991Z,16.03
2022-10-25T03:35:34.060Z,16.12
2022-10-25T03:36:14.972Z,16.13
2022-10-25T03:36:55.048Z,16.10
2022-10-25T03:37:35.022Z,16.08
2022-10-25T03:38:15.033Z,16.04
2022-10-25T03:38:54.977Z,16.09
2022-10-25T03:39:35.067Z,15.89
2022-10-25T03:40:15.982Z,15.88
2022-10-25T03:40:56.090Z,15.91
2022-10-25T03:41:36.991Z,16.03
2022-10-25T03:42:17.094Z,16.02
2022-10-25T03:42:57.041Z,16.07
2022-10-25T03:43:37.074Z,16.00
2022-10-25T03:44:16.965Z,15.99
2022-10-25T03:44:58.032Z,15.95
2022-10-25T03:45:37.973Z,16.00
2022-10-25T03:46:18.088Z,16.03
2022-10-25T03:46:59.062Z,15.96
2022-10-25T03:47:39.057Z,15.96
2022-10-25T03:48:20.003Z,15.92
2022-10-25T03:49:00.063Z,15.85
2022-10-25T03:49:39.962Z,15.81
2022-10-25T03:50:20.071Z,15.87
2022-10-25T03:51:00.969Z,15.76
2022-10-25T03:51:41.080Z,15.68
2022-10-25T03:52:21.957Z,15.70
2022-10-25T03:53:02.096Z,15.63
2022-10-25T03:53:42.005Z,15.61
2022-10-25T03:54:24.369Z,15.64
2022-10-25T03:55:07.956Z,15.62
2022-10-25T03:55:48.254Z,15.67
2022-10-25T03:56:27.976Z,15.70
2022-10-25T03:57:08.014Z,15.65
2022-10-25T03:57:48.386Z,15.58
2022-10-25T03:58:29.029Z,15.60
2022-10-25T03:59:09.989Z,15.58
2022-10-25T03:59:50.060Z,15.60
2022-10-25T04:00:30.064Z,15.54
2022-10-25T04:01:10.227Z,15.60
2022-10-25T04:01:50.974Z,15.60
2022-10-25T04:02:31.036Z,15.61
2022-10-25T04:03:10.949Z,15.64
2022-10-25T04:03:51.079Z,15.59
2022-10-25T04:04:30.980Z,15.52
2022-10-25T04:05:12.004Z,15.49
2022-10-25T04:05:51.994Z,15.56
2022-10-25T04:06:33.162Z,15.51
2022-10-25T04:07:13.963Z,15.41
2022-10-25T04:07:54.085Z,15.53
2022-10-25T04:08:33.948Z,15.54
2022-10-25T04:09:14.030Z,15.66
2022-10-25T04:10:01.049Z,15.65
2022-10-25T04:10:34.814Z,15.64
2022-10-25T04:11:21.948Z,15.74
2022-10-25T04:11:55.657Z,15.64
2022-10-25T04:12:43.004Z,15.65
2022-10-25T04:13:16.689Z,15.56
2022-10-25T04:14:03.949Z,15.56
2022-10-25T04:14:38.751Z,15.53
2022-10-25T04:15:27.023Z,15.60
2022-10-25T04:16:23.953Z,15.52
2022-10-25T04:17:17.929Z,15.57
2022-10-25T04:18:12.938Z,15.52
2022-10-25T04:19:07.960Z,15.55
2022-10-25T04:20:01.957Z,15.53
2022-10-25T04:20:48.973Z,15.57
2022-10-25T04:21:23.001Z,15.49
2022-10-25T04:22:10.939Z,15.50
2022-10-25T04:22:45.041Z,15.60
2022-10-25T04:23:31.954Z,15.62
2022-10-25T04:24:06.045Z,15.62
2022-10-25T04:24:52.933Z,15.49
2022-10-25T04:25:27.042Z,15.54
2022-10-25T04:26:14.000Z,15.68
2022-10-25T04:26:48.032Z,15.69
2022-10-25T04:27:34.958Z,15.59
2022-10-25T04:28:09.049Z,15.55
2022-10-25T04:28:58.946Z,15.63
2022-10-25T04:29:33.009Z,15.60
2022-10-25T04:30:19.935Z,15.68
2022-10-25T04:30:54.010Z,15.68
2022-10-25T04:31:34.969Z,15.67
2022-10-25T04:32:15.105Z,15.65
2022-10-25T04:32:54.960Z,15.55
2022-10-25T04:33:35.002Z,15.62
2022-10-25T04:34:14.947Z,15.47
2022-10-25T04:34:55.013Z,15.60
2022-10-25T04:35:34.945Z,15.63
2022-10-25T04:36:15.007Z,15.57
2022-10-25T04:36:55.966Z,15.58
2022-10-25T04:37:35.988Z,15.47
2022-10-25T04:38:17.925Z,15.55
2022-10-25T04:39:00.056Z,15.46
2022-10-25T04:39:40.926Z,15.52
2022-10-25T04:40:22.695Z,15.50
2022-10-25T04:41:06.928Z,15.58
2022-10-25T04:41:47.005Z,15.50
2022-10-25T04:42:26.944Z,15.48
2022-10-25T04:43:06.996Z,15.58
2022-10-25T04:43:46.917Z,15.58
2022-10-25T04:44:26.981Z,15.58
2022-10-25T04:45:07.921Z,15.60
2022-10-25T04:45:47.978Z,15.60
2022-10-25T04:46:28.930Z,15.59
2022-10-25T04:47:08.972Z,15.55
2022-10-25T04:47:48.978Z,15.48
2022-10-25T04:48:29.126Z,15.50
2022-10-25T04:49:08.903Z,15.42
2022-10-25T04:49:48.991Z,15.48
2022-10-25T04:50:28.904Z,15.51
2022-10-25T04:51:09.158Z,15.47
2022-10-25T04:52:38.007Z,15.54
2022-10-25T04:53:18.941Z,15.43
2022-10-25T04:54:02.992Z,15.46
2022-10-25T04:54:42.900Z,15.55
2022-10-25T04:55:22.989Z,15.49
2022-10-25T04:56:08.893Z,15.45
2022-10-25T04:56:48.957Z,15.46
2022-10-25T04:57:29.901Z,15.49
2022-10-25T04:58:10.968Z,15.42
2022-10-25T04:58:50.946Z,15.54
2022-10-25T04:59:30.986Z,15.60
2022-10-25T05:00:11.899Z,15.48
2022-10-25T05:00:54.302Z,15.51
2022-10-25T05:01:34.945Z,15.52
2022-10-25T05:02:15.022Z,15.47
2022-10-25T05:02:57.966Z,15.46
2022-10-25T05:03:38.952Z,15.56
2022-10-25T05:04:18.941Z,15.57
2022-10-25T05:04:58.985Z,15.43
2022-10-25T05:05:38.918Z,15.47
2022-10-25T05:06:32.007Z,15.49
2022-10-25T05:07:12.908Z,15.56
2022-10-25T05:07:53.024Z,15.61
2022-10-25T05:08:32.885Z,15.66
2022-10-25T05:09:12.949Z,15.55
2022-10-25T05:09:52.912Z,15.58
2022-10-25T05:10:35.981Z,15.52
2022-10-25T05:11:17.899Z,15.50
2022-10-25T05:11:58.985Z,15.59
2022-10-25T05:12:39.893Z,15.56
2022-10-25T05:13:19.965Z,15.48
2022-10-25T05:13:59.968Z,15.49
2022-10-25T05:14:39.985Z,15.49
2022-10-25T05:15:21.019Z,15.38
2022-10-25T05:16:16.889Z,15.35
2022-10-25T05:17:10.864Z,15.40
2022-10-25T05:18:04.933Z,15.47
2022-10-25T05:19:00.896Z,15.43
2022-10-25T05:19:54.901Z,15.38
2022-10-25T05:20:41.912Z,15.36
2022-10-25T05:21:17.053Z,15.34
2022-10-25T05:22:03.920Z,15.35
2022-10-25T05:22:38.022Z,15.28
2022-10-25T05:23:25.866Z,15.37
2022-10-25T05:24:01.796Z,15.32
2022-10-25T05:24:49.900Z,15.32
2022-10-25T05:25:24.023Z,15.18
2022-10-25T05:26:09.918Z,15.22
2022-10-25T05:26:49.973Z,15.31
2022-10-25T05:27:29.878Z,15.29
2022-10-25T05:28:09.959Z,15.24
2022-10-25T05:28:52.892Z,15.30
2022-10-25T05:29:32.965Z,15.20
2022-10-25T05:30:13.930Z,15.34
2022-10-25T05:30:54.000Z,15.27
2022-10-25T05:31:36.918Z,15.33
2022-10-25T05:32:16.950Z,15.20
2022-10-25T05:33:02.712Z,15.25
2022-10-25T05:33:45.162Z,15.19
2022-10-25T05:34:24.881Z,15.19
2022-10-25T05:35:04.956Z,15.24
2022-10-25T05:35:44.878Z,15.20
2022-10-25T05:36:25.984Z,15.25
2022-10-25T05:37:05.916Z,15.13
2022-10-25T05:37:45.957Z,15.21
2022-10-25T05:38:25.910Z,15.04
2022-10-25T05:39:06.966Z,15.32
2022-10-25T05:39:46.889Z,15.21
2022-10-25T05:40:26.963Z,15.26
2022-10-25T05:41:07.896Z,15.14
2022-10-25T05:41:49.600Z,15.16
2022-10-25T05:42:29.889Z,15.19
2022-10-25T05:43:09.933Z,15.16
2022-10-25T05:43:50.882Z,15.19
2022-10-25T05:44:30.951Z,15.16
2022-10-25T05:45:11.887Z,15.09
2022-10-25T05:45:51.979Z,14.96
2022-10-25T05:46:31.874Z,15.07
2022-10-25T05:47:11.985Z,15.23
2022-10-25T05:47:52.901Z,15.13
2022-10-25T05:48:32.934Z,15.09
2022-10-25T05:49:12.859Z,15.07
2022-10-25T05:49:52.952Z,15.03
2022-10-25T05:50:33.901Z,15.09
2022-10-25T05:51:33.334Z,15.18
2022-10-25T05:52:14.871Z,15.20
2022-10-25T05:53:01.909Z,15.19
2022-10-25T05:53:58.870Z,15.11
2022-10-25T05:54:52.875Z,15.30
2022-10-25T05:55:46.898Z,15.22
2022-10-25T05:56:42.867Z,15.22
2022-10-25T05:57:36.865Z,15.06
2022-10-25T05:58:23.894Z,15.14
2022-10-25T05:58:58.010Z,15.11
2022-10-25T05:59:44.871Z,15.13
2022-10-25T06:00:19.945Z,15.19
2022-10-25T06:01:08.011Z,15.24
2022-10-25T06:02:01.047Z,15.22
2022-10-25T06:02:49.845Z,15.16
2022-10-25T06:03:30.900Z,15.22
2022-10-25T06:04:25.882Z,15.29
2022-10-25T06:05:19.861Z,15.25
2022-10-25T06:06:16.852Z,15.26
2022-10-25T06:07:10.857Z,15.28
2022-10-25T06:08:04.855Z,15.35
2022-10-25T06:08:52.869Z,15.36
2022-10-25T06:09:26.916Z,15.30
2022-10-25T06:10:14.873Z,15.35
2022-10-25T06:10:48.941Z,15.35
2022-10-25T06:11:39.881Z,15.40
2022-10-25T06:12:13.927Z,15.34
2022-10-25T06:13:00.870Z,15.42
2022-10-25T06:13:34.941Z,15.45
2022-10-25T06:14:16.878Z,15.38
2022-10-25T06:14:56.905Z,15.41
2022-10-25T06:15:36.892Z,15.28
2022-10-25T06:16:22.025Z,15.40
2022-10-25T06:17:04.159Z,15.27
2022-10-25T06:17:43.936Z,15.30
2022-10-25T06:18:23.856Z,15.35
2022-10-25T06:19:03.969Z,15.28
2022-10-25T06:19:44.982Z,15.28
2022-10-25T06:20:24.929Z,15.32
2022-10-25T06:21:09.842Z,15.31
2022-10-25T06:21:49.973Z,15.30
2022-10-25T06:22:29.828Z,15.25
2022-10-25T06:23:11.114Z,15.28
2022-10-25T06:23:52.861Z,15.45
2022-10-25T06:24:32.987Z,15.38
2022-10-25T06:25:13.886Z,15.37
2022-10-25T06:25:54.508Z,15.43
2022-10-25T06:26:36.850Z,15.48
2022-10-25T06:27:16.902Z,15.34
2022-10-25T06:27:57.849Z,15.33
2022-10-25T06:28:39.004Z,15.35
2022-10-25T06:29:19.860Z,15.37
2022-10-25T06:29:59.909Z,15.37
2022-10-25T06:30:43.873Z,15.39
2022-10-25T06:31:25.928Z,15.40
2022-10-25T06:32:05.885Z,15.39
2022-10-25T06:32:46.180Z,15.34
2022-10-25T06:33:28.046Z,15.35
2022-10-25T06:34:09.894Z,15.41
2022-10-25T06:34:50.816Z,15.48
2022-10-25T06:35:30.881Z,15.42
2022-10-25T06:36:13.857Z,15.38
2022-10-25T06:36:54.913Z,15.39
2022-10-25T06:37:34.892Z,15.47
2022-10-25T06:38:14.984Z,15.38
2022-10-25T06:38:57.568Z,15.42
2022-10-25T06:39:39.900Z,15.31
2022-10-25T06:40:19.829Z,15.34
2022-10-25T06:41:08.929Z,15.35
2022-10-25T06:41:48.845Z,15.38
2022-10-25T06:42:28.912Z,15.37
2022-10-25T06:43:08.834Z,15.32
2022-10-25T06:44:55.826Z,15.36
2022-10-25T06:45:35.883Z,15.37
2022-10-25T06:46:27.821Z,15.28
2022-10-25T06:47:17.704Z,15.30
2022-10-25T06:47:51.936Z,15.38
2022-10-25T06:48:39.090Z,15.28
2022-10-25T06:49:12.908Z,15.25
2022-10-25T06:49:59.888Z,15.29
2022-10-25T06:50:33.899Z,15.34
2022-10-25T06:51:21.852Z,15.36
2022-10-25T06:51:55.963Z,15.41
2022-10-25T06:52:35.842Z,15.38
2022-10-25T06:53:15.909Z,15.34
2022-10-25T06:54:17.172Z,15.38
2022-10-25T06:54:57.885Z,15.39
2022-10-25T06:55:38.832Z,15.36
2022-10-25T06:56:20.930Z,15.38
2022-10-25T06:57:00.824Z,15.30
2022-10-25T06:57:47.850Z,15.46
2022-10-25T06:58:45.826Z,15.46
2022-10-25T06:59:39.810Z,15.47
2022-10-25T07:00:33.796Z,15.43
2022-10-25T07:01:29.951Z,15.44
2022-10-25T07:02:23.909Z,15.41
2022-10-25T07:03:10.868Z,15.49
2022-10-25T07:03:46.073Z,15.52
2022-10-25T07:04:32.817Z,15.55
2022-10-25T07:05:06.872Z,15.54
2022-10-25T07:05:53.796Z,15.54
2022-10-25T07:06:35.810Z,15.56
2022-10-25T07:07:23.809Z,15.50
2022-10-25T07:07:57.869Z,15.56
2022-10-25T07:08:39.898Z,15.48
2022-10-25T07:09:19.874Z,15.58
2022-10-25T07:10:00.826Z,15.58
2022-10-25T07:10:40.943Z,15.56
2022-10-25T07:11:25.789Z,15.55
2022-10-25T07:12:11.428Z,15.51
2022-10-25T07:12:52.786Z,15.57
2022-10-25T07:13:32.858Z,15.61
2022-10-25T07:14:12.819Z,15.67
2022-10-25T07:14:52.889Z,15.61
2022-10-25T07:15:32.802Z,15.70
2022-10-25T07:16:16.938Z,15.50
2022-10-25T07:16:56.825Z,15.58
2022-10-25T07:17:36.896Z,15.70
2022-10-25T07:18:16.786Z,15.50
2022-10-25T07:18:56.871Z,15.58
2022-10-25T07:19:37.808Z,15.60
2022-10-25T07:20:17.869Z,15.61
2022-10-25T07:20:57.787Z,15.55
2022-10-25T07:21:39.909Z,15.51
2022-10-25T07:22:19.797Z,15.47
2022-10-25T07:23:00.634Z,15.59
2022-10-25T07:23:44.822Z,15.65
2022-10-25T07:24:24.849Z,15.52
2022-10-25T07:25:05.940Z,15.60
2022-10-25T07:25:45.840Z,15.58
2022-10-25T07:26:28.814Z,15.69
2022-10-25T07:27:08.927Z,15.52
2022-10-25T07:27:49.218Z,15.47
2022-10-25T07:28:43.792Z,15.73
2022-10-25T07:29:37.833Z,15.58
2022-10-25T07:30:24.863Z,15.51
2022-10-25T07:30:58.886Z,15.69
2022-10-25T07:31:50.803Z,15.72
2022-10-25T07:32:24.854Z,15.62
2022-10-25T07:33:11.760Z,15.70
2022-10-25T07:33:45.836Z,15.76
2022-10-25T07:34:32.797Z,15.72
2022-10-25T07:35:06.967Z,15.73
2022-10-25T07:35:59.098Z,15.74
2022-10-25T07:36:48.857Z,15.84
2022-10-25T07:37:29.779Z,15.79
2022-10-25T07:38:09.849Z,15.84
2022-10-25T07:38:49.772Z,15.82
2022-10-25T07:39:29.847Z,15.74
2022-10-25T07:40:10.798Z,15.81
2022-10-25T07:40:57.814Z,15.80
2022-10-25T07:41:51.801Z,15.80
2022-10-25T07:42:45.796Z,15.81
2022-10-25T07:43:40.771Z,15.95
2022-10-25T07:44:35.835Z,15.87
2022-10-25T07:45:31.210Z,15.93
2022-10-25T07:46:18.797Z,16.01
2022-10-25T07:46:53.959Z,16.06
2022-10-25T07:47:40.804Z,16.06
2022-10-25T07:48:14.873Z,16.10
2022-10-25T07:49:01.780Z,16.00
2022-10-25T07:49:36.905Z,15.99
2022-10-25T07:50:25.836Z,16.13
2022-10-25T07:50:59.830Z,16.10
2022-10-25T07:51:39.787Z,16.21
2022-10-25T07:52:20.454Z,16.08
2022-10-25T07:53:03.746Z,16.19
2022-10-25T07:53:43.858Z,16.14
2022-10-25T07:54:23.789Z,16.26
2022-10-25T07:55:03.905Z,16.20
2022-10-25T07:55:43.756Z,16.19
2022-10-25T07:56:25.893Z,16.16
2022-10-25T07:57:05.833Z,16.20
2022-10-25T07:57:47.160Z,16.22
2022-10-25T07:58:28.798Z,16.28
2022-10-25T07:59:08.868Z,16.22
2022-10-25T07:59:49.731Z,16.27
2022-10-25T08:00:29.849Z,16.25
2022-10-25T08:01:12.823Z,16.33
2022-10-25T08:01:53.934Z,16.29
2022-10-25T08:02:34.795Z,16.37
2022-10-25T08:03:14.919Z,16.36
2022-10-25T08:03:55.742Z,16.44
2022-10-25T08:04:35.827Z,16.46
2022-10-25T08:05:16.746Z,16.44
2022-10-25T08:05:56.808Z,16.36
2022-10-25T08:06:36.745Z,16.45
2022-10-25T08:07:16.840Z,16.44
2022-10-25T08:07:57.797Z,16.53
2022-10-25T08:08:37.926Z,16.58
2022-10-25T08:09:36.992Z,16.61
2022-10-25T08:10:19.493Z,16.51
2022-10-25T08:10:59.740Z,16.62
2022-10-25T08:11:39.846Z,16.55
2022-10-25T08:12:22.547Z,16.55
2022-10-25T08:13:09.956Z,16.45
2022-10-25T08:14:03.737Z,16.64
2022-10-25T08:14:57.751Z,16.67
2022-10-25T08:15:51.737Z,16.72
2022-10-25T08:16:32.469Z,16.74
2022-10-25T08:17:20.752Z,16.64
2022-10-25T08:18:01.716Z,16.75
2022-10-25T08:18:42.760Z,16.82
2022-10-25T08:19:16.810Z,16.79
2022-10-25T08:19:51.446Z,16.75
2022-10-25T08:21:00.135Z,16.77
2022-10-25T08:21:26.871Z,16.78
2022-10-25T08:22:00.440Z,16.84
2022-10-25T08:22:41.732Z,16.92
2022-10-25T08:23:15.930Z,16.93
2022-10-25T08:23:55.785Z,16.84
2022-10-25T08:24:38.613Z,16.83
2022-10-25T08:25:19.940Z,16.83
2022-10-25T08:26:01.802Z,16.88
2022-10-25T08:26:41.758Z,16.86
2022-10-25T08:27:21.992Z,16.87
2022-10-25T08:28:01.748Z,16.91
2022-10-25T08:28:44.074Z,16.82
2022-10-25T08:29:24.823Z,16.86
2022-10-25T08:30:04.817Z,16.78
2022-10-25T08:30:46.762Z,16.84
2022-10-25T08:31:26.791Z,17.01
2022-10-25T08:32:06.715Z,16.94
2022-10-25T08:32:46.842Z,16.88
2022-10-25T08:33:26.744Z,17.05
2022-10-25T08:34:07.900Z,16.97
2022-10-25T08:34:47.778Z,16.91
2022-10-25T08:35:27.811Z,16.80
2022-10-25T08:36:10.726Z,16.76
2022-10-25T08:36:50.867Z,16.86
2022-10-25T08:37:31.716Z,16.78
2022-10-25T08:38:12.790Z,16.66
2022-10-25T08:38:53.703Z,16.76
2022-10-25T08:39:33.779Z,16.77
2022-10-25T08:40:15.757Z,16.75
2022-10-25T08:41:06.899Z,16.76
2022-10-25T08:42:06.727Z,16.66
2022-10-25T08:43:31.790Z,16.77
2022-10-25T08:44:29.723Z,16.70
2022-10-25T08:46:06.762Z,16.79
2022-10-25T08:46:59.670Z,16.79
2022-10-25T08:47:51.714Z,16.99
2022-10-25T08:48:35.349Z,17.06
2022-10-25T08:50:17.698Z,17.10
2022-10-25T08:50:54.110Z,17.00
2022-10-25T08:51:40.759Z,16.96
2022-10-25T08:52:31.801Z,17.01
2022-10-25T08:53:33.871Z,16.92
2022-10-25T08:54:36.736Z,17.01
2022-10-25T08:55:21.792Z,16.98
2022-10-25T08:56:15.545Z,17.11
2022-10-25T08:57:15.020Z,17.12
2022-10-25T08:57:50.813Z,17.06
2022-10-25T08:59:04.862Z,17.18
2022-10-25T08:59:47.722Z,17.15
2022-10-25T09:00:25.907Z,17.12
2022-10-25T09:01:05.207Z,17.21
2022-10-25T09:01:53.848Z,17.20
2022-10-25T09:03:07.730Z,17.27
2022-10-25T09:03:41.794Z,17.15
2022-10-25T09:04:29.753Z,17.11
2022-10-25T09:05:04.544Z,17.22
2022-10-25T09:06:09.805Z,17.34
2022-10-25T09:07:13.697Z,17.29
2022-10-25T09:08:02.769Z,17.37
2022-10-25T09:09:19.716Z,17.35
2022-10-25T09:10:22.832Z,17.07
2022-10-25T09:11:29.692Z,17.22
2022-10-25T09:12:40.821Z,17.25
2022-10-25T09:13:38.713Z,17.18
2022-10-25T09:14:59.717Z,17.24
2022-10-25T09:16:27.684Z,17.26
2022-10-25T09:17:32.703Z,17.25
2022-10-25T09:18:31.710Z,17.28
2022-10-25T09:20:17.728Z,17.25
2022-10-25T09:21:15.643Z,17.16
2022-10-25T09:22:17.698Z,17.16
2022-10-25T09:23:18.758Z,17.19
2022-10-25T09:24:19.691Z,17.13
2022-10-25T09:25:36.766Z,17.19
2022-10-25T09:26:55.707Z,17.18
2022-10-25T09:27:53.677Z,17.17
2022-10-25T09:29:02.745Z,17.19
2022-10-25T09:30:08.669Z,17.33
2022-10-25T09:30:57.753Z,17.39
2022-10-25T09:31:32.757Z,17.23
2022-10-25T09:32:43.697Z,17.33
2022-10-25T09:33:23.771Z,17.23
2022-10-25T09:34:14.686Z,17.01
2022-10-25T09:34:48.765Z,17.21
2022-10-25T09:35:51.685Z,17.19
2022-10-25T09:36:33.694Z,17.22
2022-10-25T09:38:00.727Z,17.26
2022-10-25T09:39:06.727Z,17.19
2022-10-25T09:40:08.674Z,17.12
2022-10-25T09:41:35.695Z,17.15
2022-10-25T09:42:41.646Z,17.07
2022-10-25T09:43:45.642Z,17.14
2022-10-25T09:44:49.692Z,17.15
2022-10-25T09:45:56.696Z,17.31
2022-10-25T09:47:10.706Z,17.24
2022-10-25T09:48:35.664Z,17.28
2022-10-25T09:50:00.662Z,17.38
2022-10-25T09:51:14.731Z,17.30
2022-10-25T09:53:01.704Z,17.36
2022-10-25T09:53:57.669Z,17.36
2022-10-25T09:55:15.675Z,17.41
2022-10-25T09:56:12.687Z,17.39
2022-10-25T09:57:06.651Z,17.30
2022-10-25T09:58:00.684Z,17.39
2022-10-25T09:58:48.661Z,17.44
2022-10-25T09:59:28.802Z,17.39
2022-10-25T10:00:09.680Z,17.45
2022-10-25T10:00:49.733Z,17.42
2022-10-25T10:01:33.767Z,17.49
2022-10-25T10:02:21.803Z,17.46
2022-10-25T10:03:01.741Z,17.48
2022-10-25T10:03:45.654Z,17.39
2022-10-25T10:04:41.689Z,17.45
2022-10-25T10:05:24.793Z,17.50
2022-10-25T10:06:34.665Z,17.45
2022-10-25T10:07:26.729Z,17.38